createdAt,value
2019-02-22T00:00:25.163Z,10.15
2019-02-22T00:02:52.644Z,10.31
2019-02-22T00:05:20.089Z,10.38
2019-02-22T00:07:47.553Z,10.27
2019-02-22T00:10:15.051Z,10.22
2019-02-22T00:12:42.513Z,9.96
2019-02-22T00:15:09.965Z,10.02
2019-02-22T00:17:37.419Z,9.92
2019-02-22T00:20:04.872Z,10.04
2019-02-22T00:22:32.356Z,10.05
2019-02-22T00:24:59.802Z,10.20
2019-02-22T00:27:27.264Z,10.02
2019-02-22T00:29:54.729Z,10.03
2019-02-22T00:32:22.206Z,10.12
2019-02-22T00:34:49.787Z,9.85
2019-02-22T00:37:17.166Z,9.81
2019-02-22T00:39:45.551Z,10.20
2019-02-22T00:42:13.007Z,10.27
2019-02-22T00:44:40.450Z,9.96
2019-02-22T00:47:07.918Z,9.88
2019-02-22T00:49:35.397Z,9.88
2019-02-22T00:52:02.875Z,10.10
2019-02-22T00:54:30.343Z,9.97
2019-02-22T00:56:57.763Z,10.04
2019-02-22T00:59:25.264Z,10.15
2019-02-22T01:01:52.714Z,10.14
2019-02-22T01:04:20.172Z,10.17
2019-02-22T01:06:47.602Z,9.89
2019-02-22T01:09:16.113Z,10.21
2019-02-22T01:11:43.592Z,9.97
2019-02-22T01:14:11.046Z,10.18
2019-02-22T01:16:38.526Z,10.48
2019-02-22T01:19:05.986Z,10.46
2019-02-22T01:21:33.454Z,10.49
2019-02-22T01:24:00.922Z,10.10
2019-02-22T01:26:28.406Z,10.29
2019-02-22T01:28:55.840Z,10.37
2019-02-22T01:31:23.308Z,10.21
2019-02-22T01:33:50.768Z,9.98
2019-02-22T01:36:18.213Z,10.10
2019-02-22T01:38:46.637Z,10.15
2019-02-22T01:41:14.090Z,10.18
2019-02-22T01:43:41.549Z,10.28
2019-02-22T01:46:09.027Z,10.37
2019-02-22T01:48:36.493Z,10.28
2019-02-22T01:51:04.004Z,9.97
2019-02-22T01:53:32.003Z,9.99
2019-02-22T01:55:59.509Z,10.31
2019-02-22T01:58:27.002Z,9.90
2019-02-22T02:00:54.509Z,10.03
2019-02-22T02:03:22.008Z,10.23
2019-02-22T02:05:49.593Z,9.99
2019-02-22T02:08:17.191Z,9.84
2019-02-22T02:10:53.909Z,9.89
2019-02-22T02:13:12.476Z,9.90
2019-02-22T02:15:42.546Z,10.03
2019-02-22T02:18:10.557Z,10.04
2019-02-22T02:20:38.135Z,9.80
2019-02-22T02:23:05.652Z,9.76
2019-02-22T02:25:33.142Z,10.11
2019-02-22T02:28:00.576Z,9.74
2019-02-22T02:30:28.276Z,9.84
2019-02-22T02:32:55.878Z,10.09
2019-02-22T02:35:24.361Z,10.09
2019-02-22T02:37:51.839Z,10.15
2019-02-22T02:40:19.446Z,10.01
2019-02-22T02:42:47.876Z,9.94
2019-02-22T02:45:15.354Z,10.39
2019-02-22T02:47:42.836Z,10.42
2019-02-22T02:50:10.344Z,10.61
2019-02-22T02:52:37.890Z,10.45
2019-02-22T02:55:05.333Z,10.65
2019-02-22T02:57:32.779Z,10.87
2019-02-22T03:00:00.485Z,10.27
2019-02-22T03:02:27.789Z,10.34
2019-02-22T03:04:55.280Z,10.10
2019-02-22T03:07:28.082Z,10.36
2019-02-22T03:09:55.567Z,10.32
2019-02-22T03:12:23.022Z,10.76
2019-02-22T03:14:50.511Z,10.66
2019-02-22T03:17:18.563Z,10.72
2019-02-22T03:19:46.049Z,10.48
2019-02-22T03:22:13.512Z,10.32
2019-02-22T03:24:40.982Z,9.93
2019-02-22T03:27:08.449Z,10.04
2019-02-22T03:29:35.961Z,10.20
2019-02-22T03:32:03.442Z,10.51
2019-02-22T03:34:30.945Z,10.51
2019-02-22T03:36:58.484Z,10.45
2019-02-22T03:39:25.950Z,10.38
2019-02-22T03:41:54.274Z,10.22
2019-02-22T03:44:21.741Z,10.66
2019-02-22T03:46:49.220Z,10.45
2019-02-22T03:49:16.751Z,10.69
2019-02-22T03:51:44.217Z,10.77
2019-02-22T03:54:11.700Z,10.73
2019-02-22T03:56:39.166Z,11.03
2019-02-22T03:59:06.676Z,11.16
2019-02-22T04:01:34.135Z,10.78
2019-02-22T04:04:01.630Z,10.84
2019-02-22T04:06:29.148Z,10.84
2019-02-22T04:08:56.601Z,10.69
2019-02-22T04:11:24.737Z,10.53
2019-02-22T04:13:52.264Z,10.58
2019-02-22T04:16:19.737Z,10.67
2019-02-22T04:18:47.275Z,10.54
2019-02-22T04:21:14.732Z,10.57
2019-02-22T04:23:42.201Z,10.59
2019-02-22T04:26:09.702Z,10.48
2019-02-22T04:28:37.179Z,10.59
2019-02-22T04:31:04.663Z,10.88
2019-02-22T04:33:32.168Z,10.78
2019-02-22T04:35:59.627Z,10.72
2019-02-22T04:38:27.082Z,11.02
2019-02-22T04:40:55.318Z,10.68
2019-02-22T04:43:22.785Z,10.64
2019-02-22T04:45:50.313Z,10.72
2019-02-22T04:48:17.777Z,10.52
2019-02-22T04:50:45.290Z,10.67
2019-02-22T04:53:12.794Z,10.54
2019-02-22T04:55:40.278Z,10.42
2019-02-22T04:58:07.739Z,10.77
2019-02-22T05:00:35.227Z,10.96
2019-02-22T05:03:02.703Z,11.19
2019-02-22T05:05:30.223Z,11.28
2019-02-22T05:07:57.704Z,11.27
2019-02-22T05:10:25.860Z,11.26
2019-02-22T05:12:53.455Z,11.18
2019-02-22T05:15:20.861Z,11.17
2019-02-22T05:17:48.335Z,11.17
2019-02-22T05:20:15.803Z,11.03
2019-02-22T05:22:43.334Z,11.25
2019-02-22T05:25:10.839Z,11.15
2019-02-22T05:27:38.328Z,11.16
2019-02-22T05:30:05.804Z,11.38
2019-02-22T05:32:33.272Z,11.45
2019-02-22T05:35:00.770Z,11.58
2019-02-22T05:37:28.271Z,11.46
2019-02-22T05:39:56.589Z,11.58
2019-02-22T05:42:24.091Z,11.66
2019-02-22T05:44:51.600Z,11.48
2019-02-22T05:47:19.066Z,11.47
2019-02-22T05:49:46.597Z,11.52
2019-02-22T05:52:14.071Z,11.65
2019-02-22T05:54:41.581Z,11.24
2019-02-22T05:57:09.077Z,11.27
2019-02-22T05:59:36.522Z,11.39
2019-02-22T06:02:04.010Z,11.37
2019-02-22T06:04:31.493Z,11.49
2019-02-22T06:06:58.961Z,11.62
2019-02-22T06:09:27.333Z,11.64
2019-02-22T06:11:54.835Z,11.72
2019-02-22T06:14:22.313Z,11.69
2019-02-22T06:16:49.817Z,11.74
2019-02-22T06:19:17.273Z,11.75
2019-02-22T06:21:44.760Z,11.77
2019-02-22T06:24:12.219Z,11.80
2019-02-22T06:26:39.700Z,11.76
2019-02-22T06:29:07.157Z,11.83
2019-02-22T06:31:34.648Z,11.85
2019-02-22T06:34:02.117Z,11.83
2019-02-22T06:36:29.608Z,11.85
2019-02-22T06:38:57.739Z,11.84
2019-02-22T06:41:25.210Z,11.83
2019-02-22T06:43:52.736Z,11.87
2019-02-22T06:46:20.571Z,11.87
2019-02-22T06:48:48.062Z,11.88
2019-02-22T06:51:15.546Z,11.87
2019-02-22T06:53:43.034Z,11.84
2019-02-22T06:56:10.505Z,11.82
2019-02-22T06:58:38.875Z,11.82
2019-02-22T07:01:06.465Z,11.84
2019-02-22T07:03:33.955Z,11.78
2019-02-22T07:06:01.442Z,11.83
2019-02-22T07:08:28.901Z,11.75
2019-02-22T07:10:59.930Z,11.78
2019-02-22T07:13:27.417Z,11.75
2019-02-22T07:15:54.939Z,11.75
2019-02-22T07:18:22.426Z,11.77
2019-02-22T07:20:49.964Z,11.75
2019-02-22T07:23:17.492Z,11.72
2019-02-22T07:25:44.974Z,11.75
2019-02-22T07:28:12.448Z,11.73
2019-02-22T07:30:39.960Z,11.76
2019-02-22T07:33:07.434Z,11.79
2019-02-22T07:35:34.900Z,11.77
2019-02-22T07:38:02.384Z,11.78
2019-02-22T07:40:29.855Z,11.77
2019-02-22T07:43:07.585Z,11.72
2019-02-22T07:45:24.923Z,11.79
2019-02-22T07:47:52.465Z,11.84
2019-02-22T07:50:19.975Z,11.84
2019-02-22T07:52:47.462Z,11.88
2019-02-22T07:55:14.945Z,11.92
2019-02-22T07:57:42.426Z,11.93
2019-02-22T08:00:12.262Z,11.94
2019-02-22T08:02:39.727Z,11.96
2019-02-22T08:05:09.134Z,12.03
2019-02-22T08:07:36.056Z,12.08
2019-02-22T08:10:03.561Z,12.06
2019-02-22T08:12:31.087Z,12.07
2019-02-22T08:14:58.685Z,12.10
2019-02-22T08:17:26.137Z,12.12
2019-02-22T08:19:53.626Z,12.11
2019-02-22T08:22:21.114Z,12.13
2019-02-22T08:24:48.591Z,12.15
2019-02-22T08:27:16.065Z,12.21
2019-02-22T08:29:43.575Z,12.18
2019-02-22T08:32:11.069Z,12.20
2019-02-22T08:34:38.576Z,12.25
2019-02-22T08:37:08.041Z,12.22
2019-02-22T08:39:36.445Z,12.19
2019-02-22T08:42:03.956Z,12.18
2019-02-22T08:44:31.456Z,12.17
2019-02-22T08:46:58.912Z,12.17
2019-02-22T08:49:26.417Z,12.16
2019-02-22T08:51:53.914Z,12.12
2019-02-22T08:54:21.383Z,12.12
2019-02-22T08:56:49.058Z,12.16
2019-02-22T08:59:16.363Z,12.20
2019-02-22T09:01:43.845Z,12.18
2019-02-22T09:04:11.303Z,12.19
2019-02-22T09:06:38.814Z,12.20
2019-02-22T09:09:06.328Z,12.16
2019-02-22T09:11:33.792Z,12.13
2019-02-22T09:14:01.311Z,12.20
2019-02-22T09:16:28.772Z,12.20
2019-02-22T09:18:56.286Z,12.16
2019-02-22T09:21:23.757Z,11.97
2019-02-22T09:23:51.239Z,12.19
2019-02-22T09:26:18.765Z,12.20
2019-02-22T09:28:46.267Z,12.15
2019-02-22T09:31:13.771Z,12.22
2019-02-22T09:33:41.248Z,12.29
2019-02-22T09:36:08.765Z,12.29
2019-02-22T09:38:36.277Z,12.30
2019-02-22T09:41:03.815Z,12.30
2019-02-22T09:43:31.756Z,12.32
2019-02-22T09:45:59.225Z,12.31
2019-02-22T09:48:26.762Z,12.36
2019-02-22T09:50:54.238Z,12.39
2019-02-22T09:53:21.726Z,12.41
2019-02-22T09:55:49.391Z,12.49
2019-02-22T09:58:16.910Z,12.41
2019-02-22T10:00:44.413Z,12.43
2019-02-22T10:03:11.945Z,12.43
2019-02-22T10:05:39.448Z,12.42
2019-02-22T10:08:06.967Z,12.53
2019-02-22T10:10:34.506Z,12.64
2019-02-22T10:13:02.301Z,12.58
2019-02-22T10:15:29.813Z,12.64
2019-02-22T10:17:57.338Z,12.63
2019-02-22T10:20:26.321Z,12.63
2019-02-22T10:22:53.967Z,12.70
2019-02-22T10:25:21.671Z,12.75
2019-02-22T10:27:49.127Z,12.75
2019-02-22T10:30:16.634Z,12.73
2019-02-22T10:32:44.239Z,12.76
2019-02-22T10:35:11.728Z,12.77
2019-02-22T10:37:39.362Z,12.77
2019-02-22T10:40:06.903Z,12.75
2019-02-22T10:42:36.027Z,12.76
2019-02-22T10:45:03.557Z,12.79
2019-02-22T10:47:31.060Z,12.84
2019-02-22T10:49:58.568Z,12.87
2019-02-22T10:52:26.075Z,12.83
2019-02-22T10:54:54.318Z,12.82
2019-02-22T10:57:21.921Z,12.88
2019-02-22T10:59:49.647Z,12.83
2019-02-22T11:02:17.120Z,12.83
2019-02-22T11:04:44.590Z,12.73
2019-02-22T11:07:12.130Z,12.86
2019-02-22T11:09:39.689Z,12.78
2019-02-22T11:12:07.342Z,12.82
2019-02-22T11:14:34.881Z,12.88
2019-02-22T11:17:02.620Z,12.90
2019-02-22T11:19:30.164Z,12.89
2019-02-22T11:21:57.725Z,12.94
2019-02-22T11:24:25.212Z,12.84
2019-02-22T11:26:52.731Z,12.94
2019-02-22T11:29:20.318Z,13.00
2019-02-22T11:31:47.854Z,13.04
2019-02-22T11:34:15.405Z,13.07
2019-02-22T11:36:42.885Z,13.04
2019-02-22T11:39:10.636Z,12.94
2019-02-22T11:41:38.282Z,12.98
2019-02-22T11:44:09.507Z,13.00
2019-02-22T11:46:37.346Z,13.03
2019-02-22T11:49:04.984Z,13.01
2019-02-22T11:51:32.648Z,12.91
2019-02-22T11:54:00.331Z,13.05
2019-02-22T11:56:27.819Z,12.98
2019-02-22T11:58:55.336Z,13.06
2019-02-22T12:01:22.884Z,13.02
2019-02-22T12:03:50.482Z,12.97
2019-02-22T12:06:18.046Z,13.00
2019-02-22T12:08:45.787Z,13.04
2019-02-22T12:11:13.323Z,12.99
2019-02-22T12:13:41.344Z,13.00
2019-02-22T12:16:08.837Z,12.96
2019-02-22T12:18:36.677Z,12.89
2019-02-22T12:21:05.128Z,12.97
2019-02-22T12:23:32.703Z,12.97
2019-02-22T12:26:00.251Z,12.99
2019-02-22T12:28:43.530Z,12.98
2019-02-22T12:31:11.169Z,12.96
2019-02-22T12:33:38.681Z,12.98
2019-02-22T12:36:06.187Z,13.04
2019-02-22T12:38:33.713Z,13.03
2019-02-22T12:41:03.060Z,13.08
2019-02-22T12:43:30.545Z,13.06
2019-02-22T12:45:58.092Z,13.11
2019-02-22T12:48:25.544Z,13.09
2019-02-22T12:50:53.012Z,13.14
2019-02-22T12:53:20.519Z,13.20
2019-02-22T12:55:47.976Z,13.23
2019-02-22T12:58:15.873Z,13.24
2019-02-22T13:00:43.348Z,13.20
2019-02-22T13:03:10.842Z,13.21
2019-02-22T13:05:38.310Z,13.28
2019-02-22T13:08:05.818Z,13.23
2019-02-22T13:10:33.331Z,13.24
2019-02-22T13:13:00.868Z,13.20
2019-02-22T13:15:28.394Z,13.17
2019-02-22T13:17:55.898Z,13.21
2019-02-22T13:20:23.369Z,13.27
2019-02-22T13:22:50.848Z,13.27
2019-02-22T13:25:18.334Z,13.27
2019-02-22T13:27:46.403Z,13.33
2019-02-22T13:30:13.840Z,13.45
2019-02-22T13:32:41.300Z,13.43
2019-02-22T13:35:10.985Z,13.41
2019-02-22T13:37:37.300Z,13.38
2019-02-22T13:40:04.863Z,13.40
2019-02-22T13:42:32.345Z,13.41
2019-02-22T13:44:59.870Z,13.42
2019-02-22T13:47:27.360Z,13.38
2019-02-22T13:49:54.847Z,13.42
2019-02-22T13:52:22.304Z,13.32
2019-02-22T13:54:49.756Z,13.29
2019-02-22T13:57:17.232Z,13.27
2019-02-22T13:59:44.677Z,13.34
2019-02-22T14:02:14.032Z,13.36
2019-02-22T14:04:41.590Z,13.35
2019-02-22T14:07:09.069Z,13.34
2019-02-22T14:09:36.566Z,13.34
2019-02-22T14:12:04.066Z,13.37
2019-02-22T14:14:31.521Z,13.44
2019-02-22T14:16:58.995Z,13.48
2019-02-22T14:19:26.471Z,13.50
2019-02-22T14:21:53.923Z,13.44
2019-02-22T14:24:21.407Z,13.35
2019-02-22T14:26:48.880Z,13.42
2019-02-22T14:29:16.358Z,13.38
2019-02-22T14:31:43.862Z,13.42
2019-02-22T14:34:11.313Z,13.37
2019-02-22T14:36:38.825Z,13.37
2019-02-22T14:39:06.390Z,13.33
2019-02-22T14:41:33.810Z,13.35
2019-02-22T14:44:01.257Z,13.37
2019-02-22T14:46:28.757Z,13.29
2019-02-22T14:48:56.184Z,13.36
2019-02-22T14:51:23.669Z,13.32
2019-02-22T14:53:51.166Z,13.31
2019-02-22T14:56:18.654Z,13.27
2019-02-22T14:58:46.175Z,13.34
2019-02-22T15:01:13.648Z,13.19
2019-02-22T15:03:41.287Z,13.19
2019-02-22T15:06:08.737Z,13.08
2019-02-22T15:08:36.240Z,13.08
2019-02-22T15:11:03.814Z,13.08
2019-02-22T15:13:31.312Z,13.09
2019-02-22T15:16:03.668Z,13.16
2019-02-22T15:18:28.141Z,13.11
2019-02-22T15:20:55.598Z,13.12
2019-02-22T15:23:23.067Z,13.14
2019-02-22T15:25:50.511Z,13.01
2019-02-22T15:28:18.582Z,13.10
2019-02-22T15:30:46.443Z,13.08
2019-02-22T15:33:13.918Z,13.00
2019-02-22T15:35:41.458Z,13.02
2019-02-22T15:38:10.097Z,13.06
2019-02-22T15:40:39.085Z,13.01
2019-02-22T15:43:03.935Z,12.94
2019-02-22T15:45:31.490Z,12.98
2019-02-22T15:47:58.955Z,12.94
2019-02-22T15:50:26.454Z,12.96
2019-02-22T15:52:53.928Z,12.88
2019-02-22T15:55:21.359Z,12.87
2019-02-22T15:57:49.226Z,12.87
2019-02-22T16:00:23.004Z,12.84
2019-02-22T16:02:50.439Z,12.87
2019-02-22T16:05:17.972Z,12.87
2019-02-22T16:07:45.437Z,12.87
2019-02-22T16:10:13.189Z,12.89
2019-02-22T16:12:40.635Z,12.89
2019-02-22T16:15:08.110Z,12.92
2019-02-22T16:17:35.589Z,12.97
2019-02-22T16:20:03.054Z,12.91
2019-02-22T16:22:30.510Z,12.82
2019-02-22T16:24:57.962Z,12.83
2019-02-22T16:27:25.460Z,12.88
2019-02-22T16:29:52.989Z,12.94
2019-02-22T16:32:20.480Z,12.90
2019-02-22T16:34:47.919Z,12.83
2019-02-22T16:37:15.414Z,12.84
2019-02-22T16:39:42.856Z,12.86
2019-02-22T16:42:10.324Z,12.92
2019-02-22T16:44:37.771Z,12.82
2019-02-22T16:47:05.244Z,12.87
2019-02-22T16:49:32.762Z,12.95
2019-02-22T16:52:00.189Z,12.98
2019-02-22T16:54:27.669Z,12.96
2019-02-22T16:56:55.144Z,12.97
2019-02-22T16:59:22.612Z,12.96
2019-02-22T17:01:50.467Z,12.91
2019-02-22T17:04:18.827Z,12.90
2019-02-22T17:06:45.424Z,12.92
2019-02-22T17:09:12.902Z,12.94
2019-02-22T17:11:40.810Z,12.92
2019-02-22T17:14:08.343Z,12.92
2019-02-22T17:16:45.593Z,12.95
2019-02-22T17:19:03.438Z,12.91
2019-02-22T17:21:30.911Z,12.86
2019-02-22T17:23:58.417Z,12.88
2019-02-22T17:26:25.949Z,12.83
2019-02-22T17:28:54.335Z,12.74
2019-02-22T17:31:21.816Z,12.81
2019-02-22T17:33:49.416Z,12.77
2019-02-22T17:36:26.402Z,12.73
2019-02-22T17:38:44.340Z,12.76
2019-02-22T17:41:13.131Z,12.72
2019-02-22T17:43:40.666Z,12.74
2019-02-22T17:46:08.155Z,12.76
2019-02-22T17:48:35.863Z,12.69
2019-02-22T17:51:03.381Z,12.73
2019-02-22T17:53:30.862Z,12.72
2019-02-22T17:55:58.360Z,12.64
2019-02-22T17:58:25.899Z,12.60
2019-02-22T18:00:53.388Z,12.65
2019-02-22T18:03:22.474Z,12.63
2019-02-22T18:05:50.064Z,12.66
2019-02-22T18:08:17.520Z,12.62
2019-02-22T18:10:45.017Z,12.59
2019-02-22T18:13:12.526Z,12.57
2019-02-22T18:15:39.989Z,12.50
2019-02-22T18:18:07.487Z,12.46
2019-02-22T18:20:34.976Z,12.37
2019-02-22T18:23:02.459Z,12.42
2019-02-22T18:25:29.913Z,12.34
2019-02-22T18:27:57.403Z,12.38
2019-02-22T18:30:24.914Z,12.33
2019-02-22T18:32:52.377Z,12.33
2019-02-22T18:35:19.836Z,12.31
2019-02-22T18:37:47.309Z,12.24
2019-02-22T18:40:14.781Z,12.18
2019-02-22T18:42:42.305Z,12.13
2019-02-22T18:45:09.811Z,12.11
2019-02-22T18:47:37.279Z,12.12
2019-02-22T18:50:04.745Z,11.99
2019-02-22T18:52:32.224Z,12.05
2019-02-22T18:54:59.666Z,12.07
2019-02-22T18:57:27.152Z,11.96
2019-02-22T18:59:54.746Z,11.95
2019-02-22T19:02:22.760Z,11.89
2019-02-22T19:04:50.279Z,11.85
2019-02-22T19:07:17.781Z,11.91
2019-02-22T19:09:45.252Z,11.89
2019-02-22T19:12:12.712Z,11.85
2019-02-22T19:14:40.212Z,11.80
2019-02-22T19:17:07.656Z,11.78
2019-02-22T19:19:35.111Z,11.78
2019-02-22T19:22:02.779Z,11.77
2019-02-22T19:24:30.246Z,11.70
2019-02-22T19:26:57.777Z,11.71
2019-02-22T19:29:25.225Z,11.67
2019-02-22T19:31:53.260Z,11.65
2019-02-22T19:34:20.734Z,11.67
2019-02-22T19:36:48.219Z,11.68
2019-02-22T19:39:15.716Z,11.72
2019-02-22T19:41:43.180Z,11.77
2019-02-22T19:44:10.640Z,11.76
2019-02-22T19:46:38.125Z,11.81
2019-02-22T19:49:05.605Z,11.77
2019-02-22T19:51:33.067Z,11.76
2019-02-22T19:54:00.519Z,11.75
2019-02-22T19:56:27.959Z,11.71
2019-02-22T19:58:55.468Z,11.77
2019-02-22T20:01:23.818Z,11.68
2019-02-22T20:03:51.298Z,11.79
2019-02-22T20:06:18.784Z,11.75
2019-02-22T20:08:46.233Z,11.77
2019-02-22T20:11:13.719Z,11.80
2019-02-22T20:13:41.148Z,11.80
2019-02-22T20:16:08.660Z,11.80
2019-02-22T20:18:36.139Z,11.77
2019-02-22T20:21:03.586Z,11.76
2019-02-22T20:23:31.576Z,11.76
2019-02-22T20:25:59.268Z,11.74
2019-02-22T20:28:26.771Z,11.77
2019-02-22T20:30:54.810Z,11.75
2019-02-22T20:33:22.292Z,11.74
2019-02-22T20:35:49.829Z,11.78
2019-02-22T20:38:17.319Z,11.70
2019-02-22T20:40:44.784Z,11.71
2019-02-22T20:43:12.238Z,11.67
2019-02-22T20:45:40.518Z,11.59
2019-02-22T20:48:08.013Z,11.60
2019-02-22T20:50:35.493Z,11.61
2019-02-22T20:53:03.369Z,11.59
2019-02-22T20:55:30.814Z,11.48
2019-02-22T20:57:58.308Z,11.53
2019-02-22T21:00:26.513Z,11.48
2019-02-22T21:02:55.067Z,11.45
2019-02-22T21:05:22.835Z,11.48
2019-02-22T21:07:50.362Z,11.49
2019-02-22T21:10:19.776Z,11.40
2019-02-22T21:12:47.212Z,11.41
2019-02-22T21:15:14.695Z,11.43
2019-02-22T21:17:42.133Z,11.39
2019-02-22T21:20:12.471Z,11.42
2019-02-22T21:22:39.936Z,11.38
2019-02-22T21:25:08.275Z,11.40
2019-02-22T21:27:35.859Z,11.34
2019-02-22T21:30:03.358Z,11.35
2019-02-22T21:32:30.828Z,11.37
2019-02-22T21:34:58.298Z,11.33
2019-02-22T21:37:25.771Z,11.35
2019-02-22T21:39:53.285Z,11.36
2019-02-22T21:42:21.506Z,11.28
2019-02-22T21:44:49.136Z,11.29
2019-02-22T21:47:16.605Z,11.31
2019-02-22T21:49:44.069Z,11.28
2019-02-22T21:52:11.581Z,11.27
2019-02-22T21:54:39.146Z,11.28
2019-02-22T21:57:06.640Z,11.28
2019-02-22T21:59:34.071Z,11.27
2019-02-22T22:02:01.543Z,11.29
2019-02-22T22:04:29.026Z,11.25
2019-02-22T22:06:56.474Z,11.25
2019-02-22T22:09:23.958Z,11.20
2019-02-22T22:11:51.492Z,11.21
2019-02-22T22:14:18.952Z,11.18
2019-02-22T22:19:20.254Z,11.10
2019-02-22T22:21:47.701Z,11.08
2019-02-22T22:24:15.189Z,11.04
2019-02-22T22:26:42.667Z,11.04
2019-02-22T22:29:10.126Z,11.04
2019-02-22T22:31:37.592Z,10.89
2019-02-22T22:34:05.445Z,10.89
2019-02-22T22:36:32.890Z,10.85
2019-02-22T22:39:00.359Z,10.84
2019-02-22T22:41:27.871Z,10.81
2019-02-22T22:43:55.862Z,10.79
2019-02-22T22:46:23.321Z,10.77
2019-02-22T22:48:50.971Z,10.74
2019-02-22T22:51:18.300Z,10.71
2019-02-22T22:53:45.780Z,10.69
2019-02-22T22:56:13.276Z,10.69
2019-02-22T22:58:40.769Z,10.67
2019-02-22T23:01:08.339Z,10.64
2019-02-22T23:03:35.889Z,10.59
2019-02-22T23:06:03.280Z,10.57
2019-02-22T23:08:30.775Z,10.55
2019-02-22T23:10:58.605Z,10.57
2019-02-22T23:13:26.206Z,10.58
2019-02-22T23:15:53.800Z,10.53
2019-02-22T23:18:21.333Z,10.56
2019-02-22T23:20:48.799Z,10.54
2019-02-22T23:23:16.239Z,10.51
2019-02-22T23:25:43.712Z,10.55
2019-02-22T23:28:11.165Z,10.47
2019-02-22T23:30:38.626Z,10.39
2019-02-22T23:33:06.103Z,10.37
2019-02-22T23:35:33.540Z,10.38
2019-02-22T23:38:01.002Z,10.37
2019-02-22T23:40:28.842Z,10.37
2019-02-22T23:42:56.616Z,10.26
2019-02-22T23:45:24.176Z,10.34
2019-02-22T23:47:51.678Z,10.27
2019-02-22T23:50:19.133Z,10.31
2019-02-22T23:52:46.597Z,10.35
2019-02-22T23:55:14.399Z,10.32
2019-02-22T23:57:43.572Z,10.29
